Latest Weather Observations for Bundaberg

IDQ60801

Issued at 7:02 pm EST Saturday 16 December 2017 (issued every 30 minutes, with the page automatically refreshed every 10 minutes)

About weather observations | Map of weather stations | Latest weather observations for QLD | Other Formats
Station Details ID: 039128 Name: BUNDABERG AERO Lat: -24.91 Lon: 152.32 Height: 30.82 m
Data from the previous 72 hours. | See also: Recent months at Bundaberg
Date/Time
EST
Temp
°C
App
Temp
°C
Dew
Point
°C
Rel
Hum
%
Delta-T
°C
Wind Press
QNH
hPa
Press
MSL
hPa
Rain since
9am
mm
Dir  Spd
km/h
Gust
km/h
Spd
kts
Gust
kts
16/07:00pm 25.4 26.6 20.0 72 3.5 NE 13 17 7 9 1014.3 1014.1 0.0
16/06:30pm 25.8 26.2 19.9 70 3.8 NE 17 22 9 12 1014.0 1013.8 0.0
16/06:00pm 26.3 26.6 19.7 67 4.3 NE 17 22 9 12 1013.7 1013.5 0.0
16/05:30pm 27.0 27.2 19.4 63 4.9 NE 17 24 9 13 1013.3 1013.1 0.0
16/05:00pm 27.6 27.3 19.1 59 5.5 NE 19 28 10 15 1013.0 1012.8 0.0
16/04:30pm 28.0 28.1 19.2 58 5.7 NE 17 24 9 13 1013.0 1012.8 0.0
16/04:00pm 28.9 29.3 19.8 58 6.0 ENE 17 24 9 13 1012.9 1012.7 0.0
16/03:30pm 29.3 29.2 19.6 56 6.3 NE 19 30 10 16 1012.9 1012.7 0.0
16/03:00pm 29.6 29.8 20.2 57 6.2 ENE 19 28 10 15 1013.1 1012.9 0.0
16/02:30pm 28.9 28.4 19.2 55 6.3 ENE 20 30 11 16 1013.4 1013.2 0.0
16/02:00pm 29.8 29.8 19.8 55 6.6 NE 19 26 10 14 1013.6 1013.4 0.0
16/01:30pm 29.1 28.4 18.2 51 7.0 NE 19 28 10 15 1014.0 1013.8 0.0
16/01:00pm 29.7 29.4 19.1 53 6.9 ENE 19 28 10 15 1014.2 1014.0 0.0
16/12:30pm 28.9 28.0 17.7 50 7.1 ENE 19 28 10 15 1014.6 1014.4 0.0
16/12:00pm 29.4 29.2 19.4 55 6.5 NE 19 30 10 16 1014.9 1014.7 0.0
16/11:30am 29.4 29.3 18.8 53 6.8 ENE 17 24 9 13 1015.3 1015.1 0.0
16/11:00am 28.1 28.4 19.6 60 5.5 ENE 17 24 9 13 1015.6 1015.4 0.0
16/10:30am 28.6 28.3 19.5 58 5.9 ENE 20 30 11 16 1015.8 1015.6 0.0
16/10:00am 28.1 28.3 20.1 62 5.2 ENE 19 24 10 13 1015.8 1015.6 0.0
16/09:30am 27.5 27.3 19.8 63 5.0 ENE 20 28 11 15 1015.9 1015.7 0.0
16/09:00am 27.4 27.7 20.7 67 4.4 ENE 20 26 11 14 1015.7 1015.5 0.6
16/08:30am 25.8 26.8 21.0 75 3.2 ENE 17 24 9 13 1015.8 1015.6 0.6
16/08:00am 25.2 26.1 20.9 77 2.8 NE 17 24 9 13 1015.7 1015.5 0.6
16/07:30am 24.9 27.7 21.6 82 2.2 SE 9 13 5 7 1015.5 1015.3 0.6
16/07:15am 24.6 27.9 22.5 88 1.4 SSE 9 13 5 7 1015.4 1015.2 0.6
16/07:00am 24.1 28.1 22.7 92 0.9 S 6 9 3 5 1015.4 1015.2 0.6
16/06:56am 23.5 26.7 21.6 89 1.3 S 7 11 4 6 1015.3 1015.1 0.6
16/06:30am 22.6 24.7 20.9 90 1.1 SSE 11 15 6 8 1015.1 1014.9 0.0
16/06:00am 22.4 25.2 21.6 95 0.5 SSE 9 11 5 6 1014.7 1014.5 0.0
16/05:30am 21.2 23.2 20.7 97 0.3 SSE 11 13 6 7 1014.4 1014.2 0.0
16/05:00am 20.5 21.7 19.8 96 0.4 S 13 17 7 9 1013.9 1013.7 0.0
16/04:30am 20.3 22.1 19.6 96 0.4 S 9 13 5 7 1013.5 1013.3 0.0
16/04:00am 20.1 21.4 19.3 95 0.5 S 11 13 6 7 1013.1 1012.9 0.0
16/03:30am 20.1 21.3 19.1 94 0.6 S 11 13 6 7 1012.9 1012.7 0.0
16/03:00am 20.5 21.9 19.5 94 0.6 S 11 13 6 7 1012.9 1012.7 0.0
16/02:30am 20.4 22.4 19.2 93 0.8 S 7 11 4 6 1012.9 1012.7 0.0
16/02:00am 20.6 22.3 19.4 93 0.8 S 9 13 5 7 1012.9 1012.7 0.0
16/01:30am 20.7 22.0 19.2 91 0.9 S 11 13 6 7 1013.1 1012.9 0.0
16/01:00am 21.1 22.8 19.4 90 1.1 S 9 13 5 7 1013.1 1012.9 0.0
16/12:30am 21.5 23.7 19.6 89 1.2 S 7 11 4 6 1013.4 1013.2 0.0
16/12:00am 21.7 24.0 19.8 89 1.2 S 7 9 4 5 1013.6 1013.4 0.0
 
Date/Time
EST
Temp
°C
App
Temp
°C
Dew
Point
°C
Rel
Hum
%
Delta-T
°C
Wind Press
QNH
hPa
Press
MSL
hPa
Rain since
9am
mm
Dir  Spd
km/h
Gust
km/h
Spd
kts
Gust
kts
15/11:30pm 21.7 23.9 19.6 88 1.3 S 7 9 4 5 1013.9 1013.7 0.0
15/11:00pm 21.8 23.6 19.5 87 1.5 SSW 9 9 5 5 1014.0 1013.8 0.0
15/10:30pm 22.5 24.9 19.7 84 1.8 SE 6 9 3 5 1014.1 1013.9 0.0
15/10:00pm 23.1 25.1 19.9 82 2.1 E 9 11 5 6 1014.3 1014.1 0.0
15/09:30pm 23.6 25.2 19.9 80 2.4 E 11 13 6 7 1014.1 1013.9 0.0
15/09:00pm 24.2 25.8 19.9 77 2.8 ENE 11 15 6 8 1014.0 1013.8 0.0
15/08:30pm 24.7 25.9 20.0 75 3.0 ENE 13 17 7 9 1013.7 1013.5 0.0
15/08:00pm 25.6 26.7 19.7 70 3.8 E 13 17 7 9 1013.4 1013.2 0.0
15/07:30pm 25.7 28.1 20.9 75 3.2 ENE 9 15 5 8 1013.1 1012.9 0.0
15/07:00pm 25.9 27.2 20.9 74 3.3 NE 15 22 8 12 1012.6 1012.4 0.0
15/06:30pm 25.9 27.1 20.7 73 3.4 NE 15 20 8 11 1012.2 1012.0 0.0
15/06:00pm 26.6 27.8 20.7 70 3.9 NE 15 20 8 11 1011.8 1011.6 0.0
15/05:30pm 27.2 27.5 20.3 66 4.5 NE 19 26 10 14 1011.5 1011.3 0.0
15/05:00pm 27.7 27.5 19.8 62 5.2 ENE 20 28 11 15 1011.0 1010.8 0.0
15/04:30pm 28.6 28.2 20.1 60 5.6 ENE 22 32 12 17 1010.8 1010.6 0.0
15/04:00pm 28.9 28.0 19.8 58 6.0 ENE 24 32 13 17 1010.6 1010.4 0.0
15/03:30pm 29.0 28.6 20.2 59 5.8 ENE 22 33 12 18 1010.6 1010.4 0.0
15/03:00pm 28.9 27.5 18.7 54 6.6 ENE 24 35 13 19 1010.7 1010.5 0.0
15/02:30pm 29.8 28.8 18.9 52 7.1 ENE 22 32 12 17 1010.9 1010.7 0.0
15/02:00pm 30.0 29.4 18.8 51 7.3 E 20 33 11 18 1010.9 1010.7 0.0
15/01:30pm 30.1 29.3 17.9 48 7.8 E 19 28 10 15 1011.2 1011.0 0.0
15/01:00pm 29.6 28.1 16.4 45 8.2 E 19 28 10 15 1011.3 1011.1 0.0
15/12:30pm 30.3 29.2 16.3 42 8.7 ENE 17 28 9 15 1011.7 1011.5 0.0
15/12:00pm 29.8 28.9 15.9 43 8.6 E 15 24 8 13 1012.0 1011.8 0.0
15/11:30am 29.1 28.6 17.0 48 7.6 ENE 15 20 8 11 1012.3 1012.1 0.0
15/11:00am 28.7 27.9 17.9 52 6.9 E 19 26 10 14 1012.8 1012.6 0.0
15/10:30am 28.2 27.5 17.4 52 6.8 E 17 28 9 15 1013.0 1012.8 0.0
15/10:00am 28.6 28.1 18.7 55 6.4 ESE 19 24 10 13 1013.1 1012.9 0.0
15/09:30am 28.1 28.4 18.8 57 6.0 ENE 15 24 8 13 1013.2 1013.0 0.0
15/09:00am 27.1 28.0 19.2 62 5.1 ESE 13 20 7 11 1013.3 1013.1 0.0
15/08:30am 27.0 27.8 19.9 65 4.6 SE 15 20 8 11 1013.3 1013.1 0.0
15/08:00am 25.9 27.1 20.0 70 3.8 SE 13 22 7 12 1013.3 1013.1 0.0
15/07:30am 24.9 26.6 20.2 75 3.1 SSE 11 17 6 9 1013.3 1013.1 0.0
15/07:00am 23.3 24.0 19.7 80 2.3 SSE 15 19 8 10 1013.0 1012.8 0.0
15/06:30am 22.1 23.2 19.6 86 1.6 S 13 17 7 9 1012.8 1012.6 0.0
15/06:00am 21.1 22.4 19.4 90 1.1 S 11 15 6 8 1012.5 1012.3 0.0
15/05:30am 19.8 21.2 18.6 93 0.7 S 9 13 5 7 1012.2 1012.0 0.0
15/05:00am 19.9 21.3 18.6 92 0.8 S 9 11 5 6 1011.8 1011.6 0.0
15/04:30am 20.2 20.9 18.9 92 0.8 S 13 15 7 8 1011.5 1011.3 0.0
15/04:00am 20.2 22.1 19.0 93 0.8 SSW 7 9 4 5 1011.2 1011.0 0.0
15/03:30am 19.9 21.3 18.7 93 0.8 SSW 9 13 5 7 1010.9 1010.7 0.0
15/03:00am 19.8 21.5 18.6 93 0.7 SSW 7 11 4 6 1010.7 1010.5 0.0
15/02:30am 20.0 22.6 18.5 91 0.9 SSW 2 7 1 4 1010.8 1010.6 0.0
15/02:00am 20.5 23.9 19.3 93 0.8 CALM 0 0 0 0 1011.1 1010.9 0.0
15/01:30am 20.1 23.2 18.6 91 0.9 CALM 0 0 0 0 1011.3 1011.1 0.0
15/01:00am 20.3 22.3 18.8 91 0.9 SSW 6 7 3 4 1011.5 1011.3 0.0
15/12:30am 20.7 22.7 19.2 91 0.9 SSW 7 11 4 6 1011.7 1011.5 0.0
15/12:00am 21.2 24.2 19.3 89 1.2 SSE 2 9 1 5 1012.0 1011.8 0.0
 
Date/Time
EST
Temp
°C
App
Temp
°C
Dew
Point
°C
Rel
Hum
%
Delta-T
°C
Wind Press
QNH
hPa
Press
MSL
hPa
Rain since
9am
mm
Dir  Spd
km/h
Gust
km/h
Spd
kts
Gust
kts
14/11:30pm 21.6 23.7 19.3 87 1.5 SSE 7 9 4 5 1012.5 1012.3 0.0
14/11:00pm 22.1 24.4 19.8 87 1.5 SSE 7 11 4 6 1012.6 1012.4 0.0
14/10:30pm 22.4 24.7 19.8 85 1.7 SE 7 9 4 5 1012.8 1012.6 0.0
14/10:00pm 22.8 24.4 20.0 84 1.8 E 11 13 6 7 1013.0 1012.8 0.0
14/09:30pm 23.1 24.3 19.9 82 2.1 E 13 15 7 8 1012.9 1012.7 0.0
14/09:00pm 23.4 24.6 19.8 80 2.3 E 13 17 7 9 1012.9 1012.7 0.0
14/08:30pm 23.8 24.9 19.7 78 2.6 E 13 19 7 10 1012.7 1012.5 0.0
14/08:00pm 24.2 25.3 19.7 76 2.9 ESE 13 17 7 9 1012.5 1012.3 0.0
14/07:30pm 24.5 25.2 19.6 74 3.2 E 15 20 8 11 1012.3 1012.1 0.0
14/07:00pm 24.8 25.4 18.7 69 3.9 E 13 15 7 8 1011.9 1011.7 0.0
14/06:30pm 25.4 25.5 18.3 65 4.5 E 15 20 8 11 1011.4 1011.2 0.0
14/06:00pm 26.4 25.3 17.7 58 5.5 E 20 28 11 15 1011.1 1010.9 0.0
14/05:30pm 27.1 25.4 17.3 55 6.1 E 22 28 12 15 1010.7 1010.5 0.0
14/05:00pm 27.9 25.9 16.5 50 7.1 ENE 22 28 12 15 1010.3 1010.1 0.0
14/04:30pm 28.5 26.6 15.1 44 8.2 E 19 28 10 15 1010.1 1009.9 0.0
14/04:00pm 29.3 26.9 13.9 39 9.3 E 19 26 10 14 1010.0 1009.8 0.0
14/03:30pm 29.4 28.0 15.5 43 8.6 E 17 24 9 13 1010.0 1009.8 0.0
14/03:00pm 29.2 26.7 13.4 38 9.4 ENE 19 30 10 16 1010.2 1010.0 0.0
14/02:30pm 29.4 27.4 12.8 36 9.8 ENE 15 24 8 13 1010.2 1010.0 0.0
14/02:00pm 29.7 26.9 11.2 31 10.7 E 17 28 9 15 1010.4 1010.2 0.0
14/01:30pm 29.8 28.1 12.3 34 10.3 ENE 13 24 7 13 1010.6 1010.4 0.0
14/01:00pm 29.5 27.1 11.5 33 10.4 E 15 24 8 13 1010.7 1010.5 0.0
14/12:30pm 29.5 26.7 11.5 33 10.4 E 17 26 9 14 1011.1 1010.9 0.0
14/12:00pm 28.9 26.2 12.8 37 9.5 E 19 26 10 14 1011.5 1011.3 0.0
14/11:30am 28.0 26.4 15.0 45 7.9 E 17 26 9 14 1012.0 1011.8 0.0
14/11:00am 27.9 26.4 15.2 46 7.7 E 17 26 9 14 1012.2 1012.0 0.0
14/10:30am 27.5 26.0 15.2 47 7.5 ESE 17 26 9 14 1012.6 1012.4 0.0
14/10:00am 27.8 26.7 17.3 52 6.6 ESE 19 32 10 17 1012.9 1012.7 0.0
14/09:30am 26.9 25.7 17.4 56 6.0 E 20 28 11 15 1013.1 1012.9 0.0
14/09:00am 26.0 24.4 16.5 55 5.9 ESE 20 30 11 16 1013.3 1013.1 0.0
14/08:30am 26.2 25.4 18.1 61 5.1 SE 19 26 10 14 1013.6 1013.4 0.0
14/08:00am 25.2 25.1 17.9 64 4.6 SSE 15 26 8 14 1013.7 1013.5 0.0
14/07:30am 24.4 24.6 17.6 66 4.2 SSE 13 22 7 12 1013.6 1013.4 0.0
14/07:00am 22.5 23.4 18.5 78 2.5 S 11 15 6 8 1013.5 1013.3 0.0
14/06:30am 20.9 21.1 17.7 82 2.0 S 13 17 7 9 1013.3 1013.1 0.0
14/06:00am 20.0 20.2 17.6 86 1.5 SSW 13 17 7 9 1013.1 1012.9 0.0
14/05:30am 18.9 19.3 17.2 90 1.0 SSW 11 15 6 8 1012.8 1012.6 0.0
14/05:00am 18.4 18.3 16.9 91 0.9 SSW 13 17 7 9 1012.6 1012.4 0.0
14/04:30am 18.2 18.1 16.9 92 0.8 SSW 13 17 7 9 1012.2 1012.0 0.0
14/04:00am 18.3 18.1 16.8 91 0.9 SSW 13 17 7 9 1012.2 1012.0 0.0
14/03:30am 18.4 18.3 16.9 91 0.9 S 13 17 7 9 1012.0 1011.8 0.0
14/03:00am 18.4 18.7 17.1 92 0.8 S 11 15 6 8 1011.9 1011.7 0.0
14/02:30am 18.4 18.7 16.9 91 0.9 S 11 15 6 8 1012.0 1011.8 0.0
14/02:00am 18.7 19.0 17.0 90 1.0 S 11 15 6 8 1012.2 1012.0 0.0
14/01:30am 18.8 18.7 16.9 89 1.1 S 13 17 7 9 1012.4 1012.2 0.0
14/01:00am 18.9 18.8 16.9 88 1.2 SSW 13 15 7 8 1012.7 1012.5 0.0
14/12:30am 19.0 19.2 16.8 87 1.3 S 11 15 6 8 1013.2 1013.0 0.0
14/12:00am 19.8 20.2 17.2 85 1.6 SSE 11 15 6 8 1013.7 1013.5 0.0
 
Date/Time
EST
Temp
°C
App
Temp
°C
Dew
Point
°C
Rel
Hum
%
Delta-T
°C
Wind Press
QNH
hPa
Press
MSL
hPa
Rain since
9am
mm
Dir  Spd
km/h
Gust
km/h
Spd
kts
Gust
kts
13/11:30pm 19.9 20.3 17.3 85 1.6 S 11 15 6 8 1014.0 1013.8 0.0
13/11:00pm 19.8 20.6 17.2 85 1.6 SSE 9 13 5 7 1014.2 1014.0 0.0
13/10:30pm 19.9 19.9 17.1 84 1.7 SSE 13 15 7 8 1014.5 1014.3 0.0
13/10:00pm 20.1 20.7 16.9 82 1.9 SSE 9 13 5 7 1014.7 1014.5 0.0
13/09:30pm 20.8 21.2 17.2 80 2.2 SSE 11 15 6 8 1014.9 1014.7 0.0
13/09:00pm 21.1 21.5 17.3 79 2.3 SE 11 17 6 9 1014.7 1014.5 0.0
13/08:30pm 21.8 21.4 17.2 75 2.8 SE 15 19 8 10 1014.3 1014.1 0.0
13/08:00pm 22.8 22.1 17.3 71 3.4 SE 17 20 9 11 1014.1 1013.9 0.0
13/07:30pm 23.5 22.5 17.5 69 3.7 SE 19 22 10 12 1013.9 1013.7 0.0

Other Formats:

Comma delimited format used in spreadsheet applications
http://www.bom.gov.au/fwo/IDQ60801/IDQ60801.94387.axf

JavaScript Object Notation format (JSON) in row-major order
http://www.bom.gov.au/fwo/IDQ60801/IDQ60801.94387.json